Terminal Aerodrome Forecast
Issued by NWS

Home | Current Version | Previous Version | Text Only | Print | Product List | Glossary On
Versions: 1 2 3 4 5 6 7 8 9 10 11 12 13 14 15 16 17 18 19
170
FTUS43 KDLH 141731
TAFHYR
TAF
KHYR 141731Z 1418/1518 16009KT P6SM OVC045
      TEMPO 1418/1421 5SM -SN BKN025 OVC045
     FM142100 17010KT 5SM -SN OVC025
      TEMPO 1421/1501 3SM -SN OVC020
     FM150100 17008KT 3SM -SN OVC020
     FM150700 18006KT 5SM -SN OVC025
     FM151400 23007KT P6SM OVC030=

USA.gov is the U.S. government's official web portal to all federal, state and local government web resources and services.